Terminal Aerodrome Forecast
Issued by NWS

Home | Current Version | Previous Version | Text Only | Print | Product List | Glossary On
Versions: 1 2 3 4 5 6 7 8 9 10 11 12 13 14 15 16
000
FTUS43 KMPX 011723
TAFAXN
TAF
KAXN 011723Z 0118/0218 29013G19KT P6SM SCT250
     FM012100 29013G18KT 6SM -SN BKN030
     FM020200 29009KT P6SM FEW250
     FM021300 18008KT P6SM SCT030 BKN100=

USA.gov is the U.S. government's official web portal to all federal, state and local government web resources and services.